createdAt,value
2023-01-21T00:00:59.858Z,1.60
2023-01-21T00:03:26.600Z,1.60
2023-01-21T00:05:53.577Z,1.70
2023-01-21T00:08:20.317Z,1.70
2023-01-21T00:10:47.096Z,1.70
2023-01-21T00:13:13.840Z,1.80
2023-01-21T00:15:40.561Z,1.70
2023-01-21T00:18:07.893Z,1.80
2023-01-21T00:20:34.970Z,1.70
2023-01-21T00:23:01.985Z,1.80
2023-01-21T00:25:28.746Z,1.80
2023-01-21T00:27:55.464Z,1.80
2023-01-21T00:30:22.439Z,1.80
2023-01-21T00:32:50.141Z,1.70
2023-01-21T00:35:16.918Z,1.70
2023-01-21T00:37:43.628Z,1.70
2023-01-21T00:40:11.082Z,1.70
2023-01-21T00:42:37.766Z,1.70
2023-01-21T00:45:05.077Z,1.80
2023-01-21T00:47:31.771Z,1.80
2023-01-21T00:49:58.515Z,1.80
2023-01-21T00:52:25.942Z,1.70
2023-01-21T00:54:53.289Z,1.70
2023-01-21T00:57:20.210Z,1.70
2023-01-21T00:59:47.100Z,1.80
2023-01-21T01:02:13.823Z,1.70
2023-01-21T01:04:40.675Z,1.70
2023-01-21T01:07:07.381Z,1.70
2023-01-21T01:09:34.114Z,1.80
2023-01-21T01:12:00.872Z,1.70
2023-01-21T01:14:27.695Z,1.60
2023-01-21T01:16:54.552Z,1.70
2023-01-21T01:19:21.216Z,1.70
2023-01-21T01:21:48.063Z,1.60
2023-01-21T01:24:14.780Z,1.60
2023-01-21T01:26:42.316Z,1.60
2023-01-21T01:29:11.818Z,1.60
2023-01-21T01:31:38.635Z,1.70
2023-01-21T01:34:05.507Z,1.70
2023-01-21T01:36:32.243Z,1.60
2023-01-21T01:38:59.174Z,1.60
2023-01-21T01:41:29.829Z,1.50
2023-01-21T01:44:02.819Z,1.40
2023-01-21T01:46:32.771Z,1.30
2023-01-21T01:49:01.914Z,1.40
2023-01-21T01:51:41.983Z,1.40
2023-01-21T01:54:11.227Z,1.40
2023-01-21T01:56:42.006Z,1.40
2023-01-21T01:59:08.920Z,1.50
2023-01-21T02:01:36.409Z,1.50
2023-01-21T02:04:07.755Z,1.50
2023-01-21T02:06:35.140Z,1.50
2023-01-21T02:09:01.964Z,1.50
2023-01-21T02:11:28.731Z,1.40
2023-01-21T02:13:58.705Z,1.30
2023-01-21T02:16:54.833Z,1.40
2023-01-21T02:20:01.334Z,1.40
2023-01-21T02:22:42.329Z,1.40
2023-01-21T02:25:20.907Z,1.30
2023-01-21T02:27:57.164Z,1.30
2023-01-21T02:30:29.908Z,1.20
2023-01-21T02:33:30.130Z,1.10
2023-01-21T02:36:13.084Z,1.20
2023-01-21T02:38:54.671Z,1.20
2023-01-21T02:41:39.842Z,1.20
2023-01-21T02:44:10.071Z,1.00
2023-01-21T02:46:46.703Z,1.00
2023-01-21T02:49:24.647Z,1.00
2023-01-21T02:51:51.459Z,1.10
2023-01-21T02:54:39.835Z,0.90
2023-01-21T02:57:13.733Z,0.80
2023-01-21T02:59:44.367Z,1.00
2023-01-21T03:02:21.562Z,0.80
2023-01-21T03:05:10.102Z,0.90
2023-01-21T03:07:59.779Z,0.70
2023-01-21T03:10:40.262Z,0.60
2023-01-21T03:13:12.712Z,0.60
2023-01-21T03:16:11.117Z,0.80
2023-01-21T03:18:43.677Z,0.80
2023-01-21T03:21:17.771Z,0.80
2023-01-21T03:23:49.796Z,0.90
2023-01-21T03:26:20.387Z,0.90
2023-01-21T03:28:51.426Z,0.90
2023-01-21T03:31:28.617Z,0.80
2023-01-21T03:34:00.120Z,0.70
2023-01-21T03:36:45.136Z,0.80
2023-01-21T03:39:25.278Z,0.60
2023-01-21T03:41:52.119Z,0.50
2023-01-21T03:44:19.004Z,0.40
2023-01-21T03:47:13.603Z,0.50
2023-01-21T03:50:12.561Z,0.50
2023-01-21T03:52:43.494Z,0.40
2023-01-21T03:55:12.024Z,0.50
2023-01-21T03:57:38.859Z,0.60
2023-01-21T04:00:07.499Z,0.50
2023-01-21T04:02:34.353Z,0.60
2023-01-21T04:05:01.089Z,0.70
2023-01-21T04:07:28.226Z,0.70
2023-01-21T04:09:54.987Z,0.70
2023-01-21T04:12:22.023Z,0.80
2023-01-21T04:14:48.757Z,0.80
2023-01-21T04:17:15.455Z,0.90
2023-01-21T04:19:42.246Z,0.90
2023-01-21T04:22:08.917Z,0.70
2023-01-21T04:24:35.845Z,0.70
2023-01-21T04:27:02.576Z,0.50
2023-01-21T04:29:29.300Z,0.60
2023-01-21T04:31:56.084Z,0.40
2023-01-21T04:34:22.726Z,0.40
2023-01-21T04:36:49.458Z,0.20
2023-01-21T04:39:16.257Z,0.30
2023-01-21T04:41:43.055Z,0.40
2023-01-21T04:44:09.739Z,0.40
2023-01-21T04:46:36.446Z,0.20
2023-01-21T04:49:03.223Z,0.20
2023-01-21T04:51:29.972Z,0.20
2023-01-21T04:53:56.646Z,0.10
2023-01-21T04:56:23.379Z,0.20
2023-01-21T04:58:50.077Z,0.20
2023-01-21T05:01:16.948Z,0.10
2023-01-21T05:03:43.660Z,0.20
2023-01-21T05:06:10.393Z,0.20
2023-01-21T05:08:37.091Z,0.20
2023-01-21T05:11:03.811Z,0.20
2023-01-21T05:13:30.581Z,0.20
2023-01-21T05:16:03.616Z,0.20
2023-01-21T05:18:30.360Z,0.20
2023-01-21T05:20:57.078Z,0.10
2023-01-21T05:23:23.860Z,0.10
2023-01-21T05:25:50.601Z,0.30
2023-01-21T05:28:17.381Z,0.20
2023-01-21T05:30:44.757Z,0.00
2023-01-21T05:33:11.490Z,0.00
2023-01-21T05:35:38.273Z,-0.10
2023-01-21T05:38:05.118Z,-0.10
2023-01-21T05:40:32.111Z,0.00
2023-01-21T05:42:58.780Z,0.00
2023-01-21T05:45:25.625Z,0.00
2023-01-21T05:47:52.313Z,0.10
2023-01-21T05:50:19.255Z,0.10
2023-01-21T05:52:46.071Z,-0.10
2023-01-21T05:55:12.864Z,-0.20
2023-01-21T05:57:39.516Z,-0.30
2023-01-21T06:00:07.041Z,-0.40
2023-01-21T06:02:33.735Z,-0.50
2023-01-21T06:05:00.478Z,-0.40
2023-01-21T06:07:27.179Z,-0.40
2023-01-21T06:09:53.857Z,-0.40
2023-01-21T06:12:20.625Z,-0.60
2023-01-21T06:14:47.415Z,-0.60
2023-01-21T06:17:14.137Z,-0.50
2023-01-21T06:19:40.879Z,-0.60
2023-01-21T06:22:07.577Z,-1.00
2023-01-21T06:24:35.174Z,-1.10
2023-01-21T06:27:01.890Z,-1.10
2023-01-21T06:29:28.654Z,-1.10
2023-01-21T06:31:55.485Z,-1.00
2023-01-21T06:34:22.183Z,-1.30
2023-01-21T06:36:48.933Z,-1.40
2023-01-21T06:39:15.731Z,-1.50
2023-01-21T06:41:42.570Z,-1.50
2023-01-21T06:44:09.313Z,-1.60
2023-01-21T06:46:36.155Z,-1.70
2023-01-21T06:49:02.884Z,-1.60
2023-01-21T06:51:29.744Z,-1.60
2023-01-21T06:53:56.472Z,-1.50
2023-01-21T06:56:23.218Z,-1.60
2023-01-21T06:58:50.013Z,-1.60
2023-01-21T07:01:16.715Z,-1.60
2023-01-21T07:03:44.269Z,-1.70
2023-01-21T07:06:11.024Z,-1.70
2023-01-21T07:08:37.785Z,-1.70
2023-01-21T07:11:04.781Z,-1.60
2023-01-21T07:13:31.503Z,-1.50
2023-01-21T07:16:01.799Z,-1.50
2023-01-21T07:18:28.991Z,-1.70
2023-01-21T07:20:56.497Z,-1.70
2023-01-21T07:23:23.589Z,-1.70
2023-01-21T07:25:50.423Z,-1.60
2023-01-21T07:28:17.130Z,-1.80
2023-01-21T07:30:43.917Z,-1.60
2023-01-21T07:33:10.982Z,-1.50
2023-01-21T07:35:37.691Z,-1.50
2023-01-21T07:38:04.849Z,-1.50
2023-01-21T07:40:31.695Z,-1.50
2023-01-21T07:42:58.469Z,-1.50
2023-01-21T07:45:25.883Z,-1.60
2023-01-21T07:47:52.619Z,-1.60
2023-01-21T07:50:19.407Z,-1.70
2023-01-21T07:52:46.102Z,-1.90
2023-01-21T07:55:12.938Z,-1.80
2023-01-21T07:57:39.786Z,-1.70
2023-01-21T08:00:07.151Z,-1.60
2023-01-21T08:02:38.543Z,-1.50
2023-01-21T08:05:06.862Z,-1.50
2023-01-21T08:07:33.555Z,-1.50
2023-01-21T08:10:00.294Z,-1.50
2023-01-21T08:12:27.448Z,-1.80
2023-01-21T08:14:54.372Z,-1.60
2023-01-21T08:17:21.123Z,-1.40
2023-01-21T08:19:48.955Z,-1.30
2023-01-21T08:22:15.599Z,-1.30
2023-01-21T08:24:42.332Z,-1.40
2023-01-21T08:27:09.053Z,-1.50
2023-01-21T08:29:35.722Z,-1.40
2023-01-21T08:32:02.437Z,-1.20
2023-01-21T08:34:29.400Z,-1.10
2023-01-21T08:36:56.510Z,-1.00
2023-01-21T08:39:23.267Z,-1.00
2023-01-21T08:41:50.009Z,-0.90
2023-01-21T08:44:16.759Z,-0.80
2023-01-21T08:46:43.500Z,-0.60
2023-01-21T08:49:10.220Z,-0.60
2023-01-21T08:51:37.002Z,-0.40
2023-01-21T08:54:06.766Z,-0.50
2023-01-21T08:56:33.669Z,-0.40
2023-01-21T08:59:02.410Z,-0.40
2023-01-21T09:01:29.301Z,-0.20
2023-01-21T09:04:00.446Z,-0.20
2023-01-21T09:06:29.943Z,-0.10
2023-01-21T09:08:58.093Z,-0.10
2023-01-21T09:11:28.717Z,-0.10
2023-01-21T09:13:57.893Z,0.00
2023-01-21T09:16:24.703Z,0.10
2023-01-21T09:18:51.576Z,0.20
2023-01-21T09:21:18.384Z,0.20
2023-01-21T09:23:45.061Z,0.10
2023-01-21T09:26:19.763Z,0.10
2023-01-21T09:28:52.263Z,0.40
2023-01-21T09:31:21.580Z,0.40
2023-01-21T09:33:50.769Z,0.60
2023-01-21T09:36:20.673Z,0.70
2023-01-21T09:38:48.509Z,0.50
2023-01-21T09:41:23.165Z,0.00
2023-01-21T09:44:07.835Z,0.10
2023-01-21T09:46:34.606Z,0.10
2023-01-21T09:49:04.099Z,0.10
2023-01-21T09:51:57.270Z,0.00
2023-01-21T09:54:35.737Z,-0.20
2023-01-21T09:57:28.321Z,-0.10
2023-01-21T10:00:22.778Z,-0.10
2023-01-21T10:02:52.278Z,0.20
2023-01-21T10:05:25.072Z,0.30
2023-01-21T10:08:17.898Z,0.20
2023-01-21T10:11:02.365Z,0.30
2023-01-21T10:13:38.527Z,0.40
2023-01-21T10:16:11.728Z,0.30
2023-01-21T10:18:42.421Z,0.30
2023-01-21T10:21:36.948Z,0.40
2023-01-21T10:24:21.247Z,0.80
2023-01-21T10:26:50.487Z,0.50
2023-01-21T10:29:19.612Z,1.00
2023-01-21T10:31:54.668Z,1.20
2023-01-21T10:34:21.457Z,1.30
2023-01-21T10:37:02.817Z,1.50
2023-01-21T10:39:50.786Z,1.40
2023-01-21T10:42:41.699Z,1.50
2023-01-21T10:45:42.368Z,1.10
2023-01-21T10:48:35.194Z,1.10
2023-01-21T10:51:13.874Z,1.30
2023-01-21T10:53:50.164Z,1.40
2023-01-21T10:56:34.921Z,1.00
2023-01-21T10:59:14.869Z,0.90
2023-01-21T11:01:57.981Z,0.60
2023-01-21T11:04:28.238Z,0.90
2023-01-21T11:07:03.968Z,0.70
2023-01-21T11:09:38.411Z,0.50
2023-01-21T11:12:05.275Z,0.60
2023-01-21T11:14:32.007Z,0.80
2023-01-21T11:16:58.944Z,0.90
2023-01-21T11:19:30.453Z,0.70
2023-01-21T11:22:06.566Z,0.80
2023-01-21T11:24:44.119Z,0.70
2023-01-21T11:27:37.274Z,0.50
2023-01-21T11:30:44.546Z,0.20
2023-01-21T11:33:26.611Z,0.30
2023-01-21T11:35:55.200Z,0.60
2023-01-21T11:38:32.248Z,0.70
2023-01-21T11:41:25.655Z,1.00
2023-01-21T11:43:54.795Z,0.80
2023-01-21T11:46:22.965Z,0.40
2023-01-21T11:48:50.073Z,0.60
2023-01-21T11:51:17.854Z,0.60
2023-01-21T11:53:46.578Z,0.90
2023-01-21T11:56:15.678Z,0.80
2023-01-21T11:58:42.859Z,0.70
2023-01-21T12:01:20.349Z,0.60
2023-01-21T12:03:53.674Z,0.70
2023-01-21T12:06:31.292Z,1.10
2023-01-21T12:09:02.961Z,1.20
2023-01-21T12:11:31.826Z,1.50
2023-01-21T12:14:20.078Z,1.90
2023-01-21T12:17:14.771Z,1.70
2023-01-21T12:19:59.652Z,1.50
2023-01-21T12:22:51.373Z,1.30
2023-01-21T12:25:55.180Z,1.40
2023-01-21T12:28:41.074Z,1.40
2023-01-21T12:31:12.121Z,1.60
2023-01-21T12:33:59.011Z,1.50
2023-01-21T12:36:33.027Z,1.20
2023-01-21T12:39:19.595Z,1.30
2023-01-21T12:41:53.447Z,1.20
2023-01-21T12:44:28.184Z,0.70
2023-01-21T12:46:59.221Z,0.90
2023-01-21T12:50:07.517Z,0.90
2023-01-21T12:52:44.390Z,0.80
2023-01-21T12:55:22.162Z,0.80
2023-01-21T12:58:11.552Z,0.80
2023-01-21T13:00:42.738Z,0.90
2023-01-21T13:03:24.900Z,1.00
2023-01-21T13:06:05.012Z,1.20
2023-01-21T13:08:47.530Z,1.20
2023-01-21T13:11:22.112Z,1.40
2023-01-21T13:14:09.730Z,1.60
2023-01-21T13:16:40.488Z,1.80
2023-01-21T13:19:11.235Z,1.30
2023-01-21T13:21:49.503Z,1.10
2023-01-21T13:24:24.803Z,0.70
2023-01-21T13:26:51.601Z,0.70
2023-01-21T13:29:37.144Z,0.50
2023-01-21T13:32:27.932Z,0.60
2023-01-21T13:35:11.800Z,0.50
2023-01-21T13:37:52.925Z,0.50
2023-01-21T13:40:32.730Z,0.30
2023-01-21T13:43:28.307Z,0.40
2023-01-21T13:46:03.898Z,0.40
2023-01-21T13:49:01.246Z,0.20
2023-01-21T13:51:55.087Z,0.20
2023-01-21T13:54:41.425Z,0.30
2023-01-21T13:57:26.299Z,0.20
2023-01-21T14:00:02.336Z,0.30
2023-01-21T14:02:47.928Z,0.50
2023-01-21T14:05:40.206Z,0.50
2023-01-21T14:08:32.024Z,0.50
2023-01-21T14:11:04.768Z,0.70
2023-01-21T14:13:50.667Z,0.50
2023-01-21T14:16:52.428Z,0.40
2023-01-21T14:19:44.457Z,0.30
2023-01-21T14:22:38.647Z,0.40
2023-01-21T14:25:45.722Z,0.30
2023-01-21T14:28:28.972Z,0.30
2023-01-21T14:31:04.738Z,0.30
2023-01-21T14:34:00.699Z,0.10
2023-01-21T14:36:59.013Z,0.00
2023-01-21T14:39:46.945Z,0.00
2023-01-21T14:42:17.582Z,0.30
2023-01-21T14:45:06.213Z,0.40
2023-01-21T14:47:32.895Z,0.50
2023-01-21T14:50:00.113Z,0.50
2023-01-21T14:52:37.775Z,0.70
2023-01-21T14:55:28.739Z,0.80
2023-01-21T14:57:57.203Z,0.80
2023-01-21T15:00:37.396Z,0.90
2023-01-21T15:03:27.546Z,0.80
2023-01-21T15:05:57.989Z,0.80
2023-01-21T15:08:45.796Z,0.90
2023-01-21T15:11:28.901Z,0.90
2023-01-21T15:14:24.444Z,1.00
2023-01-21T15:16:51.415Z,1.00
2023-01-21T15:19:25.159Z,0.80
2023-01-21T15:22:15.008Z,0.40
2023-01-21T15:25:20.069Z,0.20
2023-01-21T15:28:26.954Z,0.40
2023-01-21T15:31:02.828Z,0.50
2023-01-21T15:33:31.375Z,0.40
2023-01-21T15:36:00.294Z,0.40
2023-01-21T15:38:28.072Z,0.60
2023-01-21T15:41:00.849Z,0.70
2023-01-21T15:43:38.680Z,0.80
2023-01-21T15:46:30.027Z,0.90
2023-01-21T15:49:25.972Z,0.90
2023-01-21T15:52:04.832Z,0.90
2023-01-21T15:54:52.931Z,0.80
2023-01-21T15:57:48.341Z,0.80
2023-01-21T16:00:25.812Z,0.80
2023-01-21T16:03:35.177Z,0.50
2023-01-21T16:06:29.653Z,0.70
2023-01-21T16:09:04.838Z,0.70
2023-01-21T16:11:51.610Z,0.70
2023-01-21T16:14:37.068Z,0.70
2023-01-21T16:17:36.143Z,0.80
2023-01-21T16:20:06.914Z,0.60
2023-01-21T16:22:38.281Z,0.60
2023-01-21T16:25:10.614Z,0.50
2023-01-21T16:27:37.393Z,0.50
2023-01-21T16:30:11.788Z,0.50
2023-01-21T16:32:38.614Z,0.60
2023-01-21T16:35:05.747Z,0.60
2023-01-21T16:37:33.160Z,0.60
2023-01-21T16:40:08.869Z,0.50
2023-01-21T16:42:42.895Z,0.40
2023-01-21T16:45:21.130Z,0.50
2023-01-21T16:47:56.817Z,0.30
2023-01-21T16:50:26.285Z,0.40
2023-01-21T16:52:54.464Z,0.40
2023-01-21T16:55:26.745Z,0.50
2023-01-21T16:57:56.103Z,0.50
2023-01-21T17:00:29.279Z,0.40
2023-01-21T17:02:57.023Z,0.50
2023-01-21T17:05:27.368Z,0.60
2023-01-21T17:07:57.724Z,0.60
2023-01-21T17:10:37.730Z,0.50
2023-01-21T17:13:13.866Z,0.50
2023-01-21T17:15:43.207Z,0.50
2023-01-21T17:18:22.734Z,0.50
2023-01-21T17:20:54.269Z,0.50
2023-01-21T17:23:53.385Z,0.50
2023-01-21T17:26:27.496Z,0.60
2023-01-21T17:29:03.226Z,0.60
2023-01-21T17:31:35.577Z,0.60
2023-01-21T17:34:17.287Z,0.50
2023-01-21T17:36:46.499Z,0.70
2023-01-21T17:39:14.241Z,0.70
2023-01-21T17:41:43.828Z,0.70
2023-01-21T17:44:22.039Z,0.40
2023-01-21T17:46:52.186Z,0.50
2023-01-21T17:49:23.207Z,0.60
2023-01-21T17:51:52.212Z,0.60
2023-01-21T17:54:26.855Z,0.70
2023-01-21T17:56:56.232Z,0.80
2023-01-21T17:59:28.771Z,0.80
2023-01-21T18:01:55.967Z,0.80
2023-01-21T18:04:23.585Z,0.80
2023-01-21T18:06:52.649Z,0.70
2023-01-21T18:09:20.685Z,0.80
2023-01-21T18:11:49.389Z,0.60
2023-01-21T18:14:22.100Z,0.60
2023-01-21T18:16:49.161Z,0.70
2023-01-21T18:19:37.345Z,0.60
2023-01-21T18:22:07.001Z,0.60
2023-01-21T18:24:35.427Z,0.60
2023-01-21T18:27:02.680Z,0.70
2023-01-21T18:29:30.716Z,0.60
2023-01-21T18:31:59.174Z,0.50
2023-01-21T18:34:26.128Z,0.60
2023-01-21T18:36:53.532Z,0.60
2023-01-21T18:39:20.733Z,0.50
2023-01-21T18:41:48.006Z,0.50
2023-01-21T18:44:16.353Z,0.40
2023-01-21T18:46:43.608Z,0.50
2023-01-21T18:49:18.966Z,0.50
2023-01-21T18:51:46.142Z,0.60
2023-01-21T18:54:17.895Z,0.50
2023-01-21T18:56:45.407Z,0.40
2023-01-21T18:59:14.455Z,0.40
2023-01-21T19:01:42.557Z,0.40
2023-01-21T19:04:11.366Z,0.40
2023-01-21T19:06:38.438Z,0.30
2023-01-21T19:09:22.073Z,0.30
2023-01-21T19:11:49.237Z,0.40
2023-01-21T19:14:16.395Z,0.50
2023-01-21T19:16:44.310Z,0.50
2023-01-21T19:19:13.085Z,0.50
2023-01-21T19:21:40.473Z,0.50
2023-01-21T19:24:10.296Z,0.50
2023-01-21T19:26:38.950Z,0.60
2023-01-21T19:29:07.979Z,0.70
2023-01-21T19:31:34.765Z,0.70
2023-01-21T19:34:01.583Z,0.70
2023-01-21T19:36:28.375Z,0.70
2023-01-21T19:38:58.385Z,0.70
2023-01-21T19:41:25.644Z,0.70
2023-01-21T19:43:52.452Z,0.70
2023-01-21T19:46:19.728Z,0.50
2023-01-21T19:48:50.193Z,0.60
2023-01-21T19:51:16.981Z,0.60
2023-01-21T19:53:43.808Z,0.60
2023-01-21T19:56:22.633Z,0.50
2023-01-21T19:58:49.785Z,0.50
2023-01-21T20:01:16.501Z,0.40
2023-01-21T20:03:58.747Z,0.50
2023-01-21T20:06:27.182Z,0.50
2023-01-21T20:08:53.822Z,0.60
2023-01-21T20:11:20.742Z,0.60
2023-01-21T20:13:47.472Z,0.70
2023-01-21T20:16:20.871Z,0.70
2023-01-21T20:18:49.238Z,0.70
2023-01-21T20:21:16.384Z,0.70
2023-01-21T20:23:43.085Z,0.70
2023-01-21T20:26:16.961Z,0.70
2023-01-21T20:28:47.768Z,0.80
2023-01-21T20:31:14.655Z,0.80
2023-01-21T20:33:43.837Z,0.80
2023-01-21T20:36:25.932Z,0.80
2023-01-21T20:38:53.815Z,0.70
2023-01-21T20:41:21.016Z,0.70
2023-01-21T20:43:47.699Z,0.70
2023-01-21T20:46:24.721Z,0.70
2023-01-21T20:48:51.772Z,0.80
2023-01-21T20:51:19.544Z,0.80
2023-01-21T20:53:46.338Z,0.80
2023-01-21T20:56:26.573Z,0.90
2023-01-21T20:58:53.603Z,0.90
2023-01-21T21:01:21.827Z,0.90
2023-01-21T21:03:49.279Z,0.90
2023-01-21T21:06:18.862Z,0.90
2023-01-21T21:08:46.067Z,0.80
2023-01-21T21:11:15.154Z,0.80
2023-01-21T21:13:42.776Z,0.90
2023-01-21T21:16:31.517Z,0.80
2023-01-21T21:18:59.296Z,0.80
2023-01-21T21:21:26.340Z,0.90
2023-01-21T21:23:53.404Z,0.90
2023-01-21T21:26:26.034Z,0.80
2023-01-21T21:28:54.701Z,0.80
2023-01-21T21:31:22.208Z,0.90
2023-01-21T21:33:49.144Z,0.70
2023-01-21T21:36:18.770Z,0.70
2023-01-21T21:38:46.151Z,0.60
2023-01-21T21:41:37.420Z,0.60
2023-01-21T21:44:07.864Z,0.50
2023-01-21T21:46:53.491Z,0.50
2023-01-21T21:49:20.196Z,0.60
2023-01-21T21:51:46.916Z,0.60
2023-01-21T21:54:15.900Z,0.60
2023-01-21T21:56:43.230Z,0.60
2023-01-21T21:59:11.955Z,0.60
2023-01-21T22:01:40.836Z,0.60
2023-01-21T22:04:07.695Z,0.50
2023-01-21T22:06:34.499Z,0.50
2023-01-21T22:09:01.841Z,0.50
2023-01-21T22:11:29.041Z,0.50
2023-01-21T22:13:56.596Z,0.50
2023-01-21T22:16:25.897Z,0.60
2023-01-21T22:18:53.648Z,0.60
2023-01-21T22:21:23.525Z,0.60
2023-01-21T22:23:50.494Z,0.60
2023-01-21T22:26:19.752Z,0.60
2023-01-21T22:28:47.178Z,0.60
2023-01-21T22:31:17.014Z,0.60
2023-01-21T22:33:44.117Z,0.60
2023-01-21T22:36:15.055Z,0.60
2023-01-21T22:38:42.111Z,0.60
2023-01-21T22:41:11.736Z,0.60
2023-01-21T22:43:48.302Z,0.60
2023-01-21T22:46:18.331Z,0.60
2023-01-21T22:48:46.106Z,0.60
2023-01-21T22:51:15.548Z,0.60
2023-01-21T22:53:45.346Z,0.70
2023-01-21T22:56:14.485Z,0.60
2023-01-21T22:58:41.448Z,0.60
2023-01-21T23:01:09.350Z,0.70
2023-01-21T23:03:37.461Z,0.80
2023-01-21T23:06:06.297Z,0.80
2023-01-21T23:08:33.539Z,0.80
2023-01-21T23:11:06.442Z,0.80
2023-01-21T23:13:34.240Z,0.90
2023-01-21T23:16:01.666Z,0.80
2023-01-21T23:18:29.375Z,0.90
2023-01-21T23:20:56.318Z,0.90
2023-01-21T23:23:23.885Z,0.90
2023-01-21T23:25:50.667Z,0.70
2023-01-21T23:28:17.724Z,0.60
2023-01-21T23:30:44.736Z,0.60
2023-01-21T23:33:12.069Z,0.60
2023-01-21T23:35:38.813Z,0.60
2023-01-21T23:38:05.538Z,0.60
2023-01-21T23:40:32.285Z,0.70
2023-01-21T23:42:58.983Z,0.70
2023-01-21T23:45:25.818Z,0.70
2023-01-21T23:47:53.739Z,0.70
2023-01-21T23:50:20.747Z,0.70
2023-01-21T23:52:47.563Z,0.60
2023-01-21T23:55:14.661Z,0.60
2023-01-21T23:57:41.569Z,0.60
